createdAt,value
2018-05-11T00:01:08.146Z,101052.41
2018-05-11T00:03:34.064Z,101055.00
2018-05-11T00:05:59.981Z,101049.42
2018-05-11T00:08:25.906Z,101052.21
2018-05-11T00:10:51.869Z,101059.63
2018-05-11T00:13:17.668Z,101063.16
2018-05-11T00:15:43.669Z,101067.40
2018-05-11T00:18:09.514Z,101069.36
2018-05-11T00:20:35.321Z,101074.30
2018-05-11T00:23:01.129Z,101077.13
2018-05-11T00:25:26.928Z,101075.30
2018-05-11T00:27:52.874Z,101075.17
2018-05-11T00:30:18.793Z,101073.29
2018-05-11T00:32:44.720Z,101074.23
2018-05-11T00:35:10.632Z,101078.94
2018-05-11T00:37:36.432Z,101077.41
2018-05-11T00:40:02.271Z,101076.98
2018-05-11T00:42:28.092Z,101082.39
2018-05-11T00:44:53.900Z,101083.67
2018-05-11T00:47:19.733Z,101089.21
2018-05-11T00:49:45.586Z,101098.66
2018-05-11T00:52:11.389Z,101100.12
2018-05-11T00:54:37.188Z,101107.07
2018-05-11T00:57:02.986Z,101107.55
2018-05-11T00:59:28.826Z,101114.46
2018-05-11T01:01:54.649Z,101128.44
2018-05-11T01:04:20.494Z,101121.87
2018-05-11T01:06:46.292Z,101127.31
2018-05-11T01:09:12.143Z,101127.95
2018-05-11T01:11:38.031Z,101137.72
2018-05-11T01:14:03.832Z,101134.57
2018-05-11T01:16:29.628Z,101148.13
2018-05-11T01:18:55.600Z,101153.84
2018-05-11T01:21:21.399Z,101157.16
2018-05-11T01:23:47.192Z,101164.25
2018-05-11T01:26:13.057Z,101168.47
2018-05-11T01:28:38.894Z,101164.94
2018-05-11T01:31:04.692Z,101175.77
2018-05-11T01:33:31.500Z,101174.16
2018-05-11T01:35:57.309Z,101180.59
2018-05-11T01:38:23.143Z,101178.97
2018-05-11T01:40:48.969Z,101185.16
2018-05-11T01:43:15.842Z,101189.14
2018-05-11T01:45:41.636Z,101186.01
2018-05-11T01:48:07.441Z,101195.30
2018-05-11T01:50:33.264Z,101199.47
2018-05-11T01:52:59.060Z,101199.25
2018-05-11T01:55:24.896Z,101194.81
2018-05-11T01:57:50.704Z,101190.89
2018-05-11T02:00:16.503Z,101197.51
2018-05-11T02:02:42.300Z,101202.20
2018-05-11T02:05:09.105Z,101196.55
2018-05-11T02:07:34.909Z,101207.02
2018-05-11T02:10:00.712Z,101202.27
2018-05-11T02:12:26.510Z,101195.03
2018-05-11T02:14:53.293Z,101198.58
2018-05-11T02:17:19.088Z,101189.98
2018-05-11T02:19:44.884Z,101198.90
2018-05-11T02:22:10.683Z,101206.47
2018-05-11T02:24:37.260Z,101212.87
2018-05-11T02:27:03.095Z,101213.42
2018-05-11T02:29:28.941Z,101215.63
2018-05-11T02:31:55.759Z,101220.75
2018-05-11T02:34:21.554Z,101222.78
2018-05-11T02:36:47.355Z,101217.07
2018-05-11T02:39:13.177Z,101229.54
2018-05-11T02:41:39.949Z,101229.59
2018-05-11T02:44:06.713Z,101240.36
2018-05-11T02:46:32.516Z,101239.42
2018-05-11T02:48:58.319Z,101237.06
2018-05-11T02:51:24.168Z,101232.80
2018-05-11T02:53:49.961Z,101237.55
2018-05-11T02:56:15.760Z,101238.31
2018-05-11T02:58:41.561Z,101243.27
2018-05-11T03:01:07.357Z,101233.98
2018-05-11T03:03:33.152Z,101240.74
2018-05-11T03:05:58.948Z,101241.68
2018-05-11T03:08:24.750Z,101240.74
2018-05-11T03:10:50.549Z,101248.14
2018-05-11T03:13:17.195Z,101249.11
2018-05-11T03:15:43.104Z,101248.50
2018-05-11T03:18:08.913Z,101251.14
2018-05-11T03:20:34.708Z,101260.00
2018-05-11T03:23:00.506Z,101259.81
2018-05-11T03:25:26.344Z,101268.95
2018-05-11T03:27:52.140Z,101275.41
2018-05-11T03:30:17.943Z,101278.54
2018-05-11T03:32:43.744Z,101273.95
2018-05-11T03:35:09.544Z,101289.36
2018-05-11T03:37:36.248Z,101289.27
2018-05-11T03:40:02.158Z,101295.27
2018-05-11T03:42:28.949Z,101300.70
2018-05-11T03:44:54.739Z,101303.28
2018-05-11T03:47:21.374Z,101301.54
2018-05-11T03:49:47.169Z,101306.77
2018-05-11T03:52:12.961Z,101305.26
2018-05-11T03:54:38.766Z,101311.45
2018-05-11T03:57:04.567Z,101310.07
2018-05-11T03:59:30.369Z,101312.56
2018-05-11T04:02:02.322Z,101307.81
2018-05-11T04:04:34.586Z,101314.95
2018-05-11T04:07:06.437Z,101313.14
2018-05-11T04:09:33.192Z,101315.08
2018-05-11T04:11:59.175Z,101310.91
2018-05-11T04:14:24.974Z,101318.63
2018-05-11T04:16:50.803Z,101314.75
2018-05-11T04:19:16.600Z,101310.00
2018-05-11T04:21:42.399Z,101314.27
2018-05-11T04:24:09.112Z,101322.05
2018-05-11T04:26:35.603Z,101326.80
2018-05-11T04:29:01.452Z,101324.57
2018-05-11T04:31:28.060Z,101320.31
2018-05-11T04:33:53.858Z,101324.64
2018-05-11T04:36:20.573Z,101327.83
2018-05-11T04:38:47.388Z,101325.13
2018-05-11T04:41:13.176Z,101329.87
2018-05-11T04:43:39.000Z,101345.28
2018-05-11T04:46:05.732Z,101345.76
2018-05-11T04:48:32.483Z,101342.98
2018-05-11T04:50:58.281Z,101347.08
2018-05-11T04:53:24.083Z,101350.02
2018-05-11T04:55:50.796Z,101357.06
2018-05-11T04:58:17.532Z,101359.06
2018-05-11T05:00:43.340Z,101364.09
2018-05-11T05:03:09.177Z,101360.41
2018-05-11T05:05:35.020Z,101367.84
2018-05-11T05:08:01.844Z,101373.86
2018-05-11T05:10:27.685Z,101375.60
2018-05-11T05:12:53.533Z,101380.54
2018-05-11T05:15:19.329Z,101382.41
2018-05-11T05:17:45.217Z,101380.95
2018-05-11T05:20:11.016Z,101387.98
2018-05-11T05:22:36.852Z,101384.15
2018-05-11T05:25:02.657Z,101388.34
2018-05-11T05:27:29.612Z,101390.70
2018-05-11T05:29:56.265Z,101392.81
2018-05-11T05:32:23.120Z,101393.91
2018-05-11T05:34:48.916Z,101396.78
2018-05-11T05:37:14.704Z,101394.33
2018-05-11T05:39:41.301Z,101392.87
2018-05-11T05:42:07.106Z,101390.36
2018-05-11T05:44:33.867Z,101389.87
2018-05-11T05:46:59.660Z,101399.63
2018-05-11T05:49:26.406Z,101397.03
2018-05-11T05:51:52.220Z,101399.20
2018-05-11T05:54:18.024Z,101399.91
2018-05-11T05:56:44.748Z,101406.05
2018-05-11T05:59:11.488Z,101403.17
2018-05-11T06:01:37.310Z,101416.50
2018-05-11T06:04:04.144Z,101416.22
2018-05-11T06:06:30.968Z,101423.20
2018-05-11T06:08:56.816Z,101418.03
2018-05-11T06:11:22.608Z,101414.24
2018-05-11T06:13:48.409Z,101406.11
2018-05-11T06:16:14.269Z,101408.82
2018-05-11T06:18:40.069Z,101410.56
2018-05-11T06:21:05.871Z,101411.05
2018-05-11T06:23:31.668Z,101417.39
2018-05-11T06:25:58.452Z,101414.41
2018-05-11T06:28:24.294Z,101419.41
2018-05-11T06:30:50.928Z,101421.16
2018-05-11T06:33:16.735Z,101422.14
2018-05-11T06:35:42.673Z,101433.00
2018-05-11T06:38:08.433Z,101433.91
2018-05-11T06:40:34.302Z,101429.52
2018-05-11T06:43:00.061Z,101432.88
2018-05-11T06:45:26.857Z,101436.02
2018-05-11T06:47:53.644Z,101441.67
2018-05-11T06:50:19.442Z,101441.03
2018-05-11T06:52:46.211Z,101452.89
2018-05-11T06:55:12.058Z,101456.02
2018-05-11T06:57:37.856Z,101450.17
2018-05-11T07:00:03.671Z,101456.58
2018-05-11T07:02:29.479Z,101455.61
2018-05-11T07:04:55.281Z,101453.12
2018-05-11T07:07:21.111Z,101455.67
2018-05-11T07:09:46.916Z,101449.49
2018-05-11T07:12:12.716Z,101450.95
2018-05-11T07:14:38.516Z,101456.61
2018-05-11T07:17:04.313Z,101456.25
2018-05-11T07:19:30.131Z,101457.09
2018-05-11T07:21:55.945Z,101455.05
2018-05-11T07:24:21.749Z,101457.03
2018-05-11T07:26:47.626Z,101458.70
2018-05-11T07:29:13.504Z,101461.74
2018-05-11T07:31:39.308Z,101468.59
2018-05-11T07:34:09.479Z,101468.53
2018-05-11T07:36:36.136Z,101474.67
2018-05-11T07:39:02.040Z,101477.52
2018-05-11T07:41:28.836Z,101475.91
2018-05-11T07:43:55.556Z,101470.05
2018-05-11T07:46:21.450Z,101467.40
2018-05-11T07:48:47.265Z,101469.92
2018-05-11T07:51:13.176Z,101473.61
2018-05-11T07:53:39.109Z,101482.66
2018-05-11T07:56:05.752Z,101478.42
2018-05-11T07:58:32.452Z,101478.55
2018-05-11T08:00:58.393Z,101486.92
2018-05-11T08:03:24.232Z,101486.53
2018-05-11T08:05:50.033Z,101486.11
2018-05-11T08:08:15.944Z,101486.08
2018-05-11T08:10:41.821Z,101484.79
2018-05-11T08:13:07.879Z,101494.06
2018-05-11T08:15:33.772Z,101496.14
2018-05-11T08:17:59.689Z,101496.97
2018-05-11T08:20:25.522Z,101503.53
2018-05-11T08:22:51.432Z,101498.42
2018-05-11T08:25:17.240Z,101500.33
2018-05-11T08:27:43.172Z,101505.05
2018-05-11T08:30:09.044Z,101512.00
2018-05-11T08:32:35.664Z,101507.21
2018-05-11T08:35:01.507Z,101511.58
2018-05-11T08:37:27.377Z,101511.47
2018-05-11T08:39:53.213Z,101506.79
2018-05-11T08:42:19.013Z,101508.92
2018-05-11T08:44:44.840Z,101503.59
2018-05-11T08:47:10.632Z,101502.65
2018-05-11T08:49:37.551Z,101501.91
2018-05-11T08:52:03.759Z,101498.48
2018-05-11T08:54:29.655Z,101506.73
2018-05-11T08:56:55.599Z,101504.08
2018-05-11T08:59:22.388Z,101504.00
2018-05-11T09:01:48.195Z,101508.66
2018-05-11T09:04:13.997Z,101512.56
2018-05-11T09:06:40.745Z,101508.83
2018-05-11T09:09:06.557Z,101516.19
2018-05-11T09:11:33.496Z,101517.80
2018-05-11T09:13:59.288Z,101522.55
2018-05-11T09:16:25.085Z,101523.87
2018-05-11T09:18:50.929Z,101524.30
2018-05-11T09:21:16.726Z,101526.36
2018-05-11T09:23:42.520Z,101521.77
2018-05-11T09:26:08.572Z,101527.14
2018-05-11T09:28:34.520Z,101521.49
2018-05-11T09:31:01.441Z,101522.88
2018-05-11T09:33:27.254Z,101524.97
2018-05-11T09:35:53.068Z,101527.08
2018-05-11T09:38:18.920Z,101525.20
2018-05-11T09:40:44.733Z,101530.37
2018-05-11T09:43:10.532Z,101536.98
2018-05-11T09:45:36.332Z,101535.58
2018-05-11T09:48:02.308Z,101536.22
2018-05-11T09:50:28.115Z,101538.63
2018-05-11T09:52:53.933Z,101541.64
2018-05-11T09:55:19.869Z,101531.89
2018-05-11T09:57:45.666Z,101538.70
2018-05-11T10:00:11.628Z,101542.62
2018-05-11T10:02:37.528Z,101542.74
2018-05-11T10:05:03.331Z,101547.80
2018-05-11T10:07:29.129Z,101548.55
2018-05-11T10:09:54.986Z,101544.14
2018-05-11T10:12:21.859Z,101546.66
2018-05-11T10:14:47.656Z,101549.95
2018-05-11T10:17:13.451Z,101546.33
2018-05-11T10:19:39.392Z,101551.53
2018-05-11T10:22:06.048Z,101551.53
2018-05-11T10:24:31.886Z,101553.86
2018-05-11T10:26:57.680Z,101553.92
2018-05-11T10:29:23.512Z,101558.58
2018-05-11T10:31:49.513Z,101563.48
2018-05-11T10:34:15.457Z,101560.25
2018-05-11T10:36:41.256Z,101557.59
2018-05-11T10:39:07.049Z,101561.87
2018-05-11T10:41:32.845Z,101561.81
2018-05-11T10:43:58.644Z,101561.38
2018-05-11T10:46:24.680Z,101564.22
2018-05-11T10:48:52.696Z,101560.97
2018-05-11T10:51:18.444Z,101565.00
2018-05-11T10:53:45.200Z,101571.98
2018-05-11T10:56:11.053Z,101574.02
2018-05-11T10:58:37.016Z,101579.86
2018-05-11T11:01:02.808Z,101580.27
2018-05-11T11:03:28.607Z,101573.09
2018-05-11T11:05:54.402Z,101574.57
2018-05-11T11:08:20.197Z,101577.20
2018-05-11T11:10:46.960Z,101569.45
2018-05-11T11:13:12.805Z,101569.24
2018-05-11T11:15:38.601Z,101574.68
2018-05-11T11:18:04.491Z,101571.22
2018-05-11T11:20:30.420Z,101576.00
2018-05-11T11:22:56.338Z,101575.60
2018-05-11T11:25:22.132Z,101572.45
2018-05-11T11:27:47.933Z,101577.41
2018-05-11T11:30:13.729Z,101570.34
2018-05-11T11:32:39.537Z,101571.92
2018-05-11T11:35:05.341Z,101567.70
2018-05-11T11:37:31.136Z,101564.73
2018-05-11T11:39:56.932Z,101559.20
2018-05-11T11:42:23.606Z,101562.09
2018-05-11T11:44:49.440Z,101558.87
2018-05-11T11:47:15.237Z,101556.84
2018-05-11T11:49:42.049Z,101558.72
2018-05-11T11:52:07.891Z,101558.09
2018-05-11T11:54:33.756Z,101560.48
2018-05-11T11:56:59.600Z,101564.73
2018-05-11T11:59:25.437Z,101566.13
2018-05-11T12:01:51.278Z,101563.94
2018-05-11T12:04:18.091Z,101565.28
2018-05-11T12:06:44.904Z,101573.59
2018-05-11T12:09:11.727Z,101559.98
2018-05-11T12:11:37.568Z,101573.93
2018-05-11T12:14:03.415Z,101574.66
2018-05-11T12:16:30.444Z,101571.83
2018-05-11T12:18:56.255Z,101566.59
2018-05-11T12:21:22.058Z,101565.41
2018-05-11T12:23:47.913Z,101560.17
2018-05-11T12:26:13.715Z,101571.06
2018-05-11T12:28:39.556Z,101565.75
2018-05-11T12:31:05.424Z,101562.27
2018-05-11T12:33:31.220Z,101563.73
2018-05-11T12:35:57.020Z,101564.91
2018-05-11T12:38:23.915Z,101554.74
2018-05-11T12:40:49.721Z,101555.23
2018-05-11T12:43:15.532Z,101554.55
2018-05-11T12:45:41.329Z,101555.30
2018-05-11T12:48:07.172Z,101557.61
2018-05-11T12:50:33.944Z,101554.19
2018-05-11T12:52:59.773Z,101551.53
2018-05-11T12:55:25.785Z,101552.59
2018-05-11T12:57:51.580Z,101557.38
2018-05-11T13:00:17.372Z,101548.28
2018-05-11T13:02:43.204Z,101548.25
2018-05-11T13:05:09.839Z,101547.78
2018-05-11T13:07:36.600Z,101551.31
2018-05-11T13:10:02.445Z,101549.01
2018-05-11T13:12:28.293Z,101554.95
2018-05-11T13:14:54.085Z,101550.16
2018-05-11T13:17:19.888Z,101549.66
2018-05-11T13:19:45.680Z,101547.83
2018-05-11T13:22:11.476Z,101549.57
2018-05-11T13:24:37.362Z,101539.95
2018-05-11T13:27:03.197Z,101546.73
2018-05-11T13:29:29.033Z,101547.27
2018-05-11T13:31:55.755Z,101543.30
2018-05-11T13:34:21.544Z,101545.61
2018-05-11T13:36:47.341Z,101545.55
2018-05-11T13:39:13.131Z,101546.09
2018-05-11T13:41:39.028Z,101546.58
2018-05-11T13:44:04.913Z,101542.90
2018-05-11T13:46:30.696Z,101540.58
2018-05-11T13:48:56.492Z,101539.61
2018-05-11T13:51:22.324Z,101539.25
2018-05-11T13:53:49.148Z,101534.81
2018-05-11T13:56:16.029Z,101536.96
2018-05-11T13:58:41.791Z,101536.61
2018-05-11T14:01:07.592Z,101540.22
2018-05-11T14:03:33.420Z,101531.04
2018-05-11T14:05:59.233Z,101532.15
2018-05-11T14:08:25.030Z,101531.73
2018-05-11T14:10:50.828Z,101528.81
2018-05-11T14:13:17.583Z,101526.97
2018-05-11T14:15:43.387Z,101527.67
2018-05-11T14:18:09.285Z,101521.95
2018-05-11T14:20:35.088Z,101520.58
2018-05-11T14:23:00.921Z,101522.80
2018-05-11T14:25:26.721Z,101520.84
2018-05-11T14:27:52.516Z,101521.83
2018-05-11T14:30:18.318Z,101519.95
2018-05-11T14:32:44.124Z,101513.24
2018-05-11T14:35:09.922Z,101517.02
2018-05-11T14:37:35.729Z,101509.48
2018-05-11T14:40:01.525Z,101512.00
2018-05-11T14:42:27.328Z,101509.70
2018-05-11T14:44:53.129Z,101509.14
2018-05-11T14:47:19.829Z,101506.00
2018-05-11T14:49:45.722Z,101501.95
2018-05-11T14:52:11.452Z,101496.04
2018-05-11T14:54:38.044Z,101497.29
2018-05-11T14:57:03.860Z,101497.84
2018-05-11T14:59:29.658Z,101495.14
2018-05-11T15:01:55.502Z,101489.55
2018-05-11T15:04:22.249Z,101487.61
2018-05-11T15:06:48.053Z,101489.77
2018-05-11T15:09:13.849Z,101482.66
2018-05-11T15:11:39.644Z,101483.83
2018-05-11T15:14:06.425Z,101482.39
2018-05-11T15:16:32.245Z,101482.39
2018-05-11T15:18:58.121Z,101478.31
2018-05-11T15:21:23.919Z,101479.73
2018-05-11T15:23:49.724Z,101475.77
2018-05-11T15:26:15.524Z,101477.70
2018-05-11T15:28:41.324Z,101474.98
2018-05-11T15:31:14.076Z,101469.75
2018-05-11T15:33:39.856Z,101465.58
2018-05-11T15:36:05.697Z,101468.71
2018-05-11T15:38:31.644Z,101469.55
2018-05-11T15:40:57.601Z,101468.35
2018-05-11T15:43:23.423Z,101466.61
2018-05-11T15:45:49.693Z,101469.88
2018-05-11T15:48:15.524Z,101464.37
2018-05-11T15:50:41.457Z,101463.60
2018-05-11T15:53:07.285Z,101460.11
2018-05-11T15:55:33.410Z,101455.75
2018-05-11T15:57:59.261Z,101456.66
2018-05-11T16:00:25.085Z,101453.23
2018-05-11T16:02:51.175Z,101456.66
2018-05-11T16:05:17.046Z,101456.02
2018-05-11T16:07:42.877Z,101455.39
2018-05-11T16:10:08.711Z,101453.03
2018-05-11T16:12:34.573Z,101453.03
2018-05-11T16:15:00.512Z,101456.86
2018-05-11T16:17:26.364Z,101449.94
2018-05-11T16:19:52.285Z,101459.91
2018-05-11T16:22:18.157Z,101448.19
2018-05-11T16:24:44.009Z,101458.12
2018-05-11T16:27:10.664Z,101449.55
2018-05-11T16:29:36.684Z,101451.27
2018-05-11T16:32:02.587Z,101449.88
2018-05-11T16:34:28.395Z,101458.80
2018-05-11T16:36:54.194Z,101455.17
2018-05-11T16:39:19.993Z,101464.23
2018-05-11T16:41:45.804Z,101454.91
2018-05-11T16:44:11.610Z,101450.52
2018-05-11T16:46:37.572Z,101448.61
2018-05-11T16:49:03.557Z,101451.49
2018-05-11T16:51:29.445Z,101455.11
2018-05-11T16:53:55.393Z,101451.13
2018-05-11T16:56:21.350Z,101444.09
2018-05-11T16:58:47.228Z,101451.84
2018-05-11T17:01:13.222Z,101448.15
2018-05-11T17:03:39.179Z,101443.95
2018-05-11T17:06:05.141Z,101456.66
2018-05-11T17:08:30.942Z,101454.00
2018-05-11T17:10:56.870Z,101460.34
2018-05-11T17:13:22.677Z,101459.97
2018-05-11T17:15:48.499Z,101457.75
2018-05-11T17:18:14.329Z,101455.03
2018-05-11T17:20:40.158Z,101455.33
2018-05-11T17:23:05.969Z,101459.34
2018-05-11T17:25:31.917Z,101456.03
2018-05-11T17:27:57.874Z,101459.91
2018-05-11T17:30:23.697Z,101456.84
2018-05-11T17:32:49.650Z,101458.65
2018-05-11T17:35:16.057Z,101458.23
2018-05-11T17:37:41.889Z,101458.30
2018-05-11T17:40:07.810Z,101461.47
2018-05-11T17:42:35.190Z,101464.94
2018-05-11T17:45:01.175Z,101459.44
2018-05-11T17:47:28.388Z,101467.75
2018-05-11T17:49:54.185Z,101465.79
2018-05-11T17:52:20.881Z,101464.23
2018-05-11T17:54:49.423Z,101465.44
2018-05-11T17:57:16.105Z,101463.87
2018-05-11T17:59:44.332Z,101472.87
2018-05-11T18:02:12.386Z,101467.69
2018-05-11T18:04:39.305Z,101472.02
2018-05-11T18:07:08.992Z,101472.38
2018-05-11T18:09:37.188Z,101469.66
2018-05-11T18:12:03.072Z,101471.89
2018-05-11T18:14:28.904Z,101471.12
2018-05-11T18:16:54.849Z,101476.91
2018-05-11T18:19:20.645Z,101476.06
2018-05-11T18:21:46.595Z,101476.16
2018-05-11T18:24:13.742Z,101478.33
2018-05-11T18:26:40.545Z,101483.28
2018-05-11T18:29:06.438Z,101482.28
2018-05-11T18:31:32.401Z,101481.89
2018-05-11T18:33:58.358Z,101484.61
2018-05-11T18:36:24.284Z,101487.26
2018-05-11T18:38:50.311Z,101482.08
2018-05-11T18:41:16.185Z,101488.36
2018-05-11T18:43:42.005Z,101489.13
2018-05-11T18:46:08.578Z,101486.41
2018-05-11T18:48:34.381Z,101491.52
2018-05-11T18:51:00.180Z,101492.56
2018-05-11T18:53:26.346Z,101489.72
2018-05-11T18:55:52.287Z,101500.09
2018-05-11T18:58:18.192Z,101499.61
2018-05-11T19:00:44.002Z,101499.34
2018-05-11T19:03:09.850Z,101501.64
2018-05-11T19:05:35.656Z,101507.70
2018-05-11T19:08:01.580Z,101510.44
2018-05-11T19:10:27.565Z,101511.95
2018-05-11T19:12:53.441Z,101514.13
2018-05-11T19:15:20.270Z,101514.97
2018-05-11T19:17:46.068Z,101518.17
2018-05-11T19:20:11.903Z,101521.23
2018-05-11T19:22:37.708Z,101522.20
2018-05-11T19:25:03.644Z,101532.81
2018-05-11T19:27:29.484Z,101536.23
2018-05-11T19:29:55.292Z,101539.47
2018-05-11T19:32:21.094Z,101536.95
2018-05-11T19:34:46.920Z,101539.05
2018-05-11T19:37:12.765Z,101539.05
2018-05-11T19:39:38.568Z,101541.77
2018-05-11T19:42:04.500Z,101542.61
2018-05-11T19:44:30.304Z,101539.80
2018-05-11T19:46:56.270Z,101545.19
2018-05-11T19:49:22.076Z,101552.56
2018-05-11T19:51:47.922Z,101551.75
2018-05-11T19:54:13.917Z,101552.30
2018-05-11T19:56:39.812Z,101551.72
2018-05-11T19:59:05.734Z,101554.59
2018-05-11T20:01:31.540Z,101548.80
2018-05-11T20:03:57.907Z,101550.48
2018-05-11T20:06:23.728Z,101549.48
2018-05-11T20:08:49.576Z,101549.06
2018-05-11T20:11:15.550Z,101553.05
2018-05-11T20:13:41.417Z,101550.00
2018-05-11T20:16:07.229Z,101548.26
2018-05-11T20:18:33.532Z,101542.44
2018-05-11T20:20:59.343Z,101541.27
2018-05-11T20:23:25.269Z,101542.73
2018-05-11T20:25:51.189Z,101543.44
2018-05-11T20:28:16.998Z,101536.45
2018-05-11T20:30:42.804Z,101539.11
2018-05-11T20:33:08.643Z,101539.17
2018-05-11T20:35:34.492Z,101545.02
2018-05-11T20:38:00.477Z,101548.87
2018-05-11T20:40:26.310Z,101552.48
2018-05-11T20:42:52.109Z,101551.74
2018-05-11T20:45:17.915Z,101555.84
2018-05-11T20:47:43.723Z,101549.91
2018-05-11T20:50:09.540Z,101545.47
2018-05-11T20:52:35.373Z,101549.09
2018-05-11T20:55:01.227Z,101548.61
2018-05-11T20:57:27.217Z,101543.62
2018-05-11T20:59:53.183Z,101544.56
2018-05-11T21:02:18.991Z,101540.78
2018-05-11T21:04:45.009Z,101536.52
2018-05-11T21:07:10.845Z,101544.47
2018-05-11T21:09:36.655Z,101540.00
2018-05-11T21:12:02.590Z,101534.70
2018-05-11T21:14:28.469Z,101534.77
2018-05-11T21:16:54.430Z,101537.16
2018-05-11T21:19:20.347Z,101535.19
2018-05-11T21:21:46.308Z,101536.38
2018-05-11T21:24:12.163Z,101538.77
2018-05-11T21:26:37.966Z,101534.50
2018-05-11T21:29:03.832Z,101540.29
2018-05-11T21:31:29.628Z,101529.97
2018-05-11T21:33:56.449Z,101540.16
2018-05-11T21:36:22.420Z,101535.89
2018-05-11T21:38:48.243Z,101535.95
2018-05-11T21:41:15.010Z,101530.11
2018-05-11T21:43:41.724Z,101529.33
2018-05-11T21:46:07.520Z,101530.83
2018-05-11T21:48:33.359Z,101524.27
2018-05-11T21:50:59.155Z,101522.70
2018-05-11T21:53:24.998Z,101516.98
2018-05-11T21:55:50.801Z,101510.80
2018-05-11T21:58:16.597Z,101513.45
2018-05-11T22:00:42.453Z,101511.27
2018-05-11T22:03:08.381Z,101512.16
2018-05-11T22:05:34.180Z,101516.23
2018-05-11T22:07:59.977Z,101511.19
2018-05-11T22:10:25.882Z,101508.92
2018-05-11T22:12:51.688Z,101509.34
2018-05-11T22:15:17.496Z,101507.60
2018-05-11T22:17:43.512Z,101502.65
2018-05-11T22:20:09.314Z,101508.83
2018-05-11T22:22:35.125Z,101503.53
2018-05-11T22:25:00.925Z,101506.02
2018-05-11T22:27:27.721Z,101495.96
2018-05-11T22:29:53.522Z,101493.05
2018-05-11T22:32:19.320Z,101489.02
2018-05-11T22:34:45.121Z,101497.70
2018-05-11T22:37:10.917Z,101481.48
2018-05-11T22:39:36.908Z,101486.00
2018-05-11T22:42:02.765Z,101487.82
2018-05-11T22:44:28.613Z,101482.30
2018-05-11T22:46:54.412Z,101483.97
2018-05-11T22:49:20.219Z,101487.95
2018-05-11T22:51:46.021Z,101491.92
2018-05-11T22:54:11.930Z,101489.78
2018-05-11T22:56:37.725Z,101488.91
2018-05-11T22:59:03.572Z,101481.81
2018-05-11T23:01:29.489Z,101482.30
2018-05-11T23:03:55.288Z,101471.01
2018-05-11T23:06:21.093Z,101473.05
2018-05-11T23:08:46.892Z,101466.42
2018-05-11T23:11:12.692Z,101465.16
2018-05-11T23:13:38.587Z,101468.43
2018-05-11T23:16:04.385Z,101464.67
2018-05-11T23:18:30.180Z,101472.05
2018-05-11T23:20:56.821Z,101467.87
2018-05-11T23:23:22.620Z,101469.46
2018-05-11T23:25:48.428Z,101477.47
2018-05-11T23:28:14.261Z,101471.56
2018-05-11T23:30:40.056Z,101467.52
2018-05-11T23:33:05.857Z,101466.56
2018-05-11T23:35:31.658Z,101471.14
2018-05-11T23:37:57.545Z,101465.36
2018-05-11T23:40:23.385Z,101478.00
2018-05-11T23:42:50.184Z,101472.88
2018-05-11T23:45:17.019Z,101477.47
2018-05-11T23:47:42.861Z,101473.17
2018-05-11T23:50:08.650Z,101480.70
2018-05-11T23:52:34.449Z,101481.67
2018-05-11T23:55:00.244Z,101484.06
2018-05-11T23:57:26.081Z,101477.77
2018-05-11T23:59:51.928Z,101473.86
